sensor_id;sensor_type;location;lat;lon;timestamp;P1;durP1;ratioP1;P2;durP2;ratioP2
2888;SDS011;1453;42.708;23.282;2024-03-02T00:00:14;38.50;;;22.27;;
2888;SDS011;1453;42.708;23.282;2024-03-02T00:02:40;36.92;;;21.23;;
2888;SDS011;1453;42.708;23.282;2024-03-02T00:05:10;34.78;;;20.75;;
2888;SDS011;1453;42.708;23.282;2024-03-02T00:07:40;39.60;;;21.27;;
2888;SDS011;1453;42.708;23.282;2024-03-02T00:10:08;34.60;;;19.50;;
2888;SDS011;1453;42.708;23.282;2024-03-02T00:12:37;34.60;;;19.33;;
2888;SDS011;1453;42.708;23.282;2024-03-02T00:18:01;34.63;;;17.98;;
2888;SDS011;1453;42.708;23.282;2024-03-02T00:20:27;32.42;;;18.52;;
2888;SDS011;1453;42.708;23.282;2024-03-02T00:23:04;28.58;;;16.58;;
2888;SDS011;1453;42.708;23.282;2024-03-02T00:25:39;25.10;;;15.30;;
2888;SDS011;1453;42.708;23.282;2024-03-02T00:30:51;30.42;;;16.50;;
2888;SDS011;1453;42.708;23.282;2024-03-02T00:33:26;28.65;;;16.52;;
2888;SDS011;1453;42.708;23.282;2024-03-02T00:35:55;26.42;;;16.20;;
2888;SDS011;1453;42.708;23.282;2024-03-02T00:38:22;34.08;;;18.63;;
2888;SDS011;1453;42.708;23.282;2024-03-02T00:40:48;32.80;;;17.27;;
2888;SDS011;1453;42.708;23.282;2024-03-02T00:44:00;27.75;;;17.10;;
2888;SDS011;1453;42.708;23.282;2024-03-02T00:46:26;25.75;;;15.52;;
2888;SDS011;1453;42.708;23.282;2024-03-02T00:48:57;30.40;;;16.25;;
2888;SDS011;1453;42.708;23.282;2024-03-02T00:51:25;27.20;;;16.90;;
2888;SDS011;1453;42.708;23.282;2024-03-02T00:53:55;29.40;;;16.50;;
2888;SDS011;1453;42.708;23.282;2024-03-02T00:56:24;25.95;;;15.65;;
2888;SDS011;1453;42.708;23.282;2024-03-02T00:58:51;28.42;;;18.95;;
2888;SDS011;1453;42.708;23.282;2024-03-02T01:01:18;29.85;;;17.08;;
2888;SDS011;1453;42.708;23.282;2024-03-02T01:03:47;33.88;;;18.17;;
2888;SDS011;1453;42.708;23.282;2024-03-02T01:06:17;30.60;;;17.10;;
2888;SDS011;1453;42.708;23.282;2024-03-02T01:08:43;28.88;;;17.70;;
2888;SDS011;1453;42.708;23.282;2024-03-02T01:11:09;30.15;;;18.70;;
2888;SDS011;1453;42.708;23.282;2024-03-02T01:13:36;32.67;;;18.48;;
2888;SDS011;1453;42.708;23.282;2024-03-02T01:16:02;31.60;;;19.50;;
2888;SDS011;1453;42.708;23.282;2024-03-02T01:18:29;31.17;;;19.35;;
2888;SDS011;1453;42.708;23.282;2024-03-02T01:20:55;38.50;;;21.00;;
2888;SDS011;1453;42.708;23.282;2024-03-02T01:23:22;34.37;;;20.43;;
2888;SDS011;1453;42.708;23.282;2024-03-02T01:25:49;39.37;;;20.73;;
2888;SDS011;1453;42.708;23.282;2024-03-02T01:28:17;39.50;;;22.30;;
2888;SDS011;1453;42.708;23.282;2024-03-02T01:30:45;32.53;;;18.50;;
2888;SDS011;1453;42.708;23.282;2024-03-02T01:33:12;33.33;;;19.70;;
2888;SDS011;1453;42.708;23.282;2024-03-02T01:35:38;35.78;;;19.70;;
2888;SDS011;1453;42.708;23.282;2024-03-02T01:38:04;35.77;;;18.50;;
2888;SDS011;1453;42.708;23.282;2024-03-02T01:40:36;26.23;;;17.27;;
2888;SDS011;1453;42.708;23.282;2024-03-02T01:43:06;30.67;;;17.05;;
2888;SDS011;1453;42.708;23.282;2024-03-02T01:45:32;33.45;;;19.63;;
2888;SDS011;1453;42.708;23.282;2024-03-02T01:48:00;31.80;;;17.80;;
2888;SDS011;1453;42.708;23.282;2024-03-02T01:50:28;35.03;;;18.60;;
2888;SDS011;1453;42.708;23.282;2024-03-02T01:52:57;35.10;;;19.80;;
2888;SDS011;1453;42.708;23.282;2024-03-02T01:55:24;36.15;;;20.30;;
2888;SDS011;1453;42.708;23.282;2024-03-02T01:57:50;36.03;;;18.48;;
2888;SDS011;1453;42.708;23.282;2024-03-02T02:00:17;36.30;;;19.73;;
2888;SDS011;1453;42.708;23.282;2024-03-02T02:02:45;37.55;;;21.67;;
2888;SDS011;1453;42.708;23.282;2024-03-02T02:05:12;29.77;;;19.20;;
2888;SDS011;1453;42.708;23.282;2024-03-02T02:07:40;34.13;;;19.98;;
2888;SDS011;1453;42.708;23.282;2024-03-02T02:10:12;35.35;;;21.55;;
2888;SDS011;1453;42.708;23.282;2024-03-02T02:12:38;34.40;;;20.02;;
2888;SDS011;1453;42.708;23.282;2024-03-02T02:15:21;36.70;;;20.75;;
2888;SDS011;1453;42.708;23.282;2024-03-02T02:17:56;40.13;;;24.20;;
2888;SDS011;1453;42.708;23.282;2024-03-02T02:20:23;40.10;;;22.27;;
2888;SDS011;1453;42.708;23.282;2024-03-02T02:23:00;37.92;;;21.35;;
2888;SDS011;1453;42.708;23.282;2024-03-02T02:25:28;38.17;;;21.02;;
2888;SDS011;1453;42.708;23.282;2024-03-02T02:27:55;40.35;;;23.05;;
2888;SDS011;1453;42.708;23.282;2024-03-02T02:30:22;46.40;;;21.60;;
2888;SDS011;1453;42.708;23.282;2024-03-02T02:32:55;42.05;;;21.98;;
2888;SDS011;1453;42.708;23.282;2024-03-02T02:35:22;39.25;;;21.15;;
2888;SDS011;1453;42.708;23.282;2024-03-02T02:37:49;39.38;;;22.35;;
2888;SDS011;1453;42.708;23.282;2024-03-02T02:40:16;40.63;;;22.30;;
2888;SDS011;1453;42.708;23.282;2024-03-02T02:42:44;40.45;;;22.40;;
2888;SDS011;1453;42.708;23.282;2024-03-02T02:45:10;47.70;;;24.23;;
2888;SDS011;1453;42.708;23.282;2024-03-02T02:47:38;49.47;;;25.10;;
2888;SDS011;1453;42.708;23.282;2024-03-02T02:50:04;43.13;;;23.90;;
2888;SDS011;1453;42.708;23.282;2024-03-02T02:52:32;36.53;;;23.15;;
2888;SDS011;1453;42.708;23.282;2024-03-02T02:55:01;38.15;;;23.13;;
2888;SDS011;1453;42.708;23.282;2024-03-02T02:57:32;43.08;;;24.35;;
2888;SDS011;1453;42.708;23.282;2024-03-02T03:00:07;44.35;;;22.08;;
2888;SDS011;1453;42.708;23.282;2024-03-02T03:02:36;43.42;;;25.23;;
2888;SDS011;1453;42.708;23.282;2024-03-02T03:05:04;45.70;;;25.08;;
2888;SDS011;1453;42.708;23.282;2024-03-02T03:07:31;40.67;;;24.17;;
2888;SDS011;1453;42.708;23.282;2024-03-02T03:09:59;43.70;;;24.50;;
2888;SDS011;1453;42.708;23.282;2024-03-02T03:12:24;46.07;;;25.10;;
2888;SDS011;1453;42.708;23.282;2024-03-02T03:14:50;49.60;;;24.10;;
2888;SDS011;1453;42.708;23.282;2024-03-02T03:17:16;46.70;;;26.27;;
2888;SDS011;1453;42.708;23.282;2024-03-02T03:19:43;41.50;;;25.08;;
2888;SDS011;1453;42.708;23.282;2024-03-02T03:22:08;49.03;;;26.10;;
2888;SDS011;1453;42.708;23.282;2024-03-02T03:24:34;132.93;;;69.97;;
2888;SDS011;1453;42.708;23.282;2024-03-02T03:27:00;94.63;;;52.83;;
2888;SDS011;1453;42.708;23.282;2024-03-02T03:29:26;52.10;;;27.30;;
2888;SDS011;1453;42.708;23.282;2024-03-02T03:32:02;65.55;;;33.88;;
2888;SDS011;1453;42.708;23.282;2024-03-02T03:34:32;48.70;;;26.35;;
2888;SDS011;1453;42.708;23.282;2024-03-02T03:36:58;46.55;;;24.67;;
2888;SDS011;1453;42.708;23.282;2024-03-02T03:39:24;53.47;;;26.77;;
2888;SDS011;1453;42.708;23.282;2024-03-02T03:41:50;48.40;;;26.75;;
2888;SDS011;1453;42.708;23.282;2024-03-02T03:44:16;56.90;;;28.93;;
2888;SDS011;1453;42.708;23.282;2024-03-02T03:46:42;44.37;;;24.17;;
2888;SDS011;1453;42.708;23.282;2024-03-02T03:49:08;47.20;;;27.53;;
2888;SDS011;1453;42.708;23.282;2024-03-02T03:51:34;49.20;;;27.17;;
2888;SDS011;1453;42.708;23.282;2024-03-02T03:54:00;47.63;;;27.00;;
2888;SDS011;1453;42.708;23.282;2024-03-02T03:56:26;51.35;;;27.15;;
2888;SDS011;1453;42.708;23.282;2024-03-02T03:58:52;54.40;;;28.40;;
2888;SDS011;1453;42.708;23.282;2024-03-02T04:01:18;48.07;;;26.40;;
2888;SDS011;1453;42.708;23.282;2024-03-02T04:03:44;50.73;;;26.77;;
2888;SDS011;1453;42.708;23.282;2024-03-02T04:06:10;51.63;;;27.38;;
2888;SDS011;1453;42.708;23.282;2024-03-02T04:08:36;48.30;;;26.17;;
2888;SDS011;1453;42.708;23.282;2024-03-02T04:11:02;49.33;;;27.20;;
2888;SDS011;1453;42.708;23.282;2024-03-02T04:13:29;51.28;;;26.65;;
2888;SDS011;1453;42.708;23.282;2024-03-02T04:15:55;49.87;;;27.27;;
2888;SDS011;1453;42.708;23.282;2024-03-02T04:18:20;57.47;;;28.50;;
2888;SDS011;1453;42.708;23.282;2024-03-02T04:20:46;58.37;;;28.30;;
2888;SDS011;1453;42.708;23.282;2024-03-02T04:23:12;46.27;;;27.23;;
2888;SDS011;1453;42.708;23.282;2024-03-02T04:25:38;56.47;;;28.07;;
2888;SDS011;1453;42.708;23.282;2024-03-02T04:28:04;49.00;;;24.33;;
2888;SDS011;1453;42.708;23.282;2024-03-02T04:30:30;51.90;;;26.50;;
2888;SDS011;1453;42.708;23.282;2024-03-02T04:32:56;55.10;;;28.40;;
2888;SDS011;1453;42.708;23.282;2024-03-02T04:35:22;60.77;;;29.83;;
2888;SDS011;1453;42.708;23.282;2024-03-02T04:37:48;47.83;;;26.90;;
2888;SDS011;1453;42.708;23.282;2024-03-02T04:40:13;57.30;;;27.20;;
2888;SDS011;1453;42.708;23.282;2024-03-02T04:42:40;50.72;;;27.95;;
2888;SDS011;1453;42.708;23.282;2024-03-02T04:45:06;51.50;;;27.90;;
2888;SDS011;1453;42.708;23.282;2024-03-02T04:47:32;48.78;;;26.15;;
2888;SDS011;1453;42.708;23.282;2024-03-02T04:49:58;57.73;;;27.60;;
2888;SDS011;1453;42.708;23.282;2024-03-02T04:52:24;57.80;;;29.67;;
2888;SDS011;1453;42.708;23.282;2024-03-02T04:54:50;54.73;;;30.40;;
2888;SDS011;1453;42.708;23.282;2024-03-02T04:57:35;55.00;;;28.80;;
2888;SDS011;1453;42.708;23.282;2024-03-02T05:00:01;67.00;;;30.67;;
2888;SDS011;1453;42.708;23.282;2024-03-02T05:02:27;60.30;;;29.55;;
2888;SDS011;1453;42.708;23.282;2024-03-02T05:04:53;64.03;;;31.80;;
2888;SDS011;1453;42.708;23.282;2024-03-02T05:07:18;60.77;;;31.87;;
2888;SDS011;1453;42.708;23.282;2024-03-02T05:09:44;61.33;;;31.30;;
2888;SDS011;1453;42.708;23.282;2024-03-02T05:12:10;53.00;;;28.50;;
2888;SDS011;1453;42.708;23.282;2024-03-02T05:15:09;64.03;;;32.55;;
2888;SDS011;1453;42.708;23.282;2024-03-02T05:17:37;65.40;;;31.23;;
2888;SDS011;1453;42.708;23.282;2024-03-02T05:20:05;56.72;;;28.83;;
2888;SDS011;1453;42.708;23.282;2024-03-02T05:22:35;66.85;;;34.10;;
2888;SDS011;1453;42.708;23.282;2024-03-02T05:25:02;64.13;;;31.52;;
2888;SDS011;1453;42.708;23.282;2024-03-02T05:27:29;61.70;;;32.10;;
2888;SDS011;1453;42.708;23.282;2024-03-02T05:29:56;65.30;;;32.75;;
2888;SDS011;1453;42.708;23.282;2024-03-02T05:32:23;63.65;;;36.10;;
2888;SDS011;1453;42.708;23.282;2024-03-02T05:34:49;69.77;;;35.07;;
2888;SDS011;1453;42.708;23.282;2024-03-02T05:37:16;71.65;;;35.10;;
2888;SDS011;1453;42.708;23.282;2024-03-02T05:39:42;76.82;;;36.00;;
2888;SDS011;1453;42.708;23.282;2024-03-02T05:42:08;66.93;;;34.40;;
2888;SDS011;1453;42.708;23.282;2024-03-02T05:44:35;70.97;;;34.47;;
2888;SDS011;1453;42.708;23.282;2024-03-02T05:47:01;78.55;;;35.20;;
2888;SDS011;1453;42.708;23.282;2024-03-02T05:49:28;70.95;;;35.20;;
2888;SDS011;1453;42.708;23.282;2024-03-02T05:51:54;74.40;;;35.83;;
2888;SDS011;1453;42.708;23.282;2024-03-02T05:54:20;82.03;;;35.53;;
2888;SDS011;1453;42.708;23.282;2024-03-02T05:56:49;78.80;;;38.88;;
2888;SDS011;1453;42.708;23.282;2024-03-02T05:59:15;75.85;;;38.08;;
2888;SDS011;1453;42.708;23.282;2024-03-02T06:01:42;78.72;;;39.60;;
2888;SDS011;1453;42.708;23.282;2024-03-02T06:04:13;72.72;;;36.10;;
2888;SDS011;1453;42.708;23.282;2024-03-02T06:06:41;78.40;;;36.35;;
2888;SDS011;1453;42.708;23.282;2024-03-02T06:09:07;69.90;;;36.87;;
2888;SDS011;1453;42.708;23.282;2024-03-02T06:14:07;77.88;;;38.38;;
2888;SDS011;1453;42.708;23.282;2024-03-02T06:16:36;82.05;;;34.53;;
2888;SDS011;1453;42.708;23.282;2024-03-02T06:19:05;75.03;;;33.40;;
2888;SDS011;1453;42.708;23.282;2024-03-02T06:21:32;62.92;;;32.95;;
2888;SDS011;1453;42.708;23.282;2024-03-02T06:23:58;65.28;;;32.63;;
2888;SDS011;1453;42.708;23.282;2024-03-02T06:26:24;72.17;;;32.77;;
2888;SDS011;1453;42.708;23.282;2024-03-02T06:28:50;57.67;;;30.47;;
2888;SDS011;1453;42.708;23.282;2024-03-02T06:31:16;67.85;;;32.45;;
2888;SDS011;1453;42.708;23.282;2024-03-02T06:33:42;63.83;;;30.40;;
2888;SDS011;1453;42.708;23.282;2024-03-02T06:36:08;67.47;;;30.97;;
2888;SDS011;1453;42.708;23.282;2024-03-02T06:38:34;68.53;;;31.38;;
2888;SDS011;1453;42.708;23.282;2024-03-02T06:41:00;60.77;;;27.80;;
2888;SDS011;1453;42.708;23.282;2024-03-02T06:43:26;57.70;;;30.70;;
2888;SDS011;1453;42.708;23.282;2024-03-02T06:45:52;66.78;;;30.67;;
2888;SDS011;1453;42.708;23.282;2024-03-02T06:48:18;56.40;;;27.47;;
2888;SDS011;1453;42.708;23.282;2024-03-02T06:50:48;61.38;;;28.20;;
2888;SDS011;1453;42.708;23.282;2024-03-02T06:53:15;51.05;;;27.30;;
2888;SDS011;1453;42.708;23.282;2024-03-02T06:55:45;60.45;;;28.73;;
2888;SDS011;1453;42.708;23.282;2024-03-02T06:58:11;53.15;;;26.27;;
2888;SDS011;1453;42.708;23.282;2024-03-02T07:00:40;53.75;;;26.75;;
2888;SDS011;1453;42.708;23.282;2024-03-02T07:03:07;55.85;;;27.20;;
2888;SDS011;1453;42.708;23.282;2024-03-02T07:05:33;58.17;;;27.83;;
2888;SDS011;1453;42.708;23.282;2024-03-02T07:07:59;51.80;;;26.10;;
2888;SDS011;1453;42.708;23.282;2024-03-02T07:10:26;53.35;;;26.15;;
2888;SDS011;1453;42.708;23.282;2024-03-02T07:12:52;62.35;;;26.80;;
2888;SDS011;1453;42.708;23.282;2024-03-02T07:15:18;53.60;;;27.67;;
2888;SDS011;1453;42.708;23.282;2024-03-02T07:17:53;53.70;;;27.15;;
2888;SDS011;1453;42.708;23.282;2024-03-02T07:20:20;51.95;;;25.65;;
2888;SDS011;1453;42.708;23.282;2024-03-02T07:22:46;50.95;;;26.38;;
2888;SDS011;1453;42.708;23.282;2024-03-02T07:25:12;52.33;;;27.83;;
2888;SDS011;1453;42.708;23.282;2024-03-02T07:27:38;53.90;;;27.30;;
2888;SDS011;1453;42.708;23.282;2024-03-02T07:30:05;53.70;;;26.93;;
2888;SDS011;1453;42.708;23.282;2024-03-02T07:32:32;46.03;;;26.02;;
2888;SDS011;1453;42.708;23.282;2024-03-02T07:34:58;59.17;;;27.70;;
2888;SDS011;1453;42.708;23.282;2024-03-02T07:37:24;52.90;;;27.80;;
2888;SDS011;1453;42.708;23.282;2024-03-02T07:39:50;53.13;;;29.10;;
2888;SDS011;1453;42.708;23.282;2024-03-02T07:42:16;56.35;;;29.38;;
2888;SDS011;1453;42.708;23.282;2024-03-02T07:44:43;64.05;;;29.55;;
2888;SDS011;1453;42.708;23.282;2024-03-02T07:47:10;58.67;;;28.63;;
2888;SDS011;1453;42.708;23.282;2024-03-02T07:49:36;52.77;;;27.03;;
2888;SDS011;1453;42.708;23.282;2024-03-02T07:52:02;59.85;;;29.08;;
2888;SDS011;1453;42.708;23.282;2024-03-02T07:54:29;56.63;;;29.10;;
2888;SDS011;1453;42.708;23.282;2024-03-02T07:56:54;63.10;;;29.47;;
2888;SDS011;1453;42.708;23.282;2024-03-02T07:59:20;50.17;;;27.13;;
2888;SDS011;1453;42.708;23.282;2024-03-02T08:01:47;56.30;;;26.53;;
2888;SDS011;1453;42.708;23.282;2024-03-02T08:04:14;50.45;;;27.55;;
2888;SDS011;1453;42.708;23.282;2024-03-02T08:06:40;50.60;;;26.33;;
2888;SDS011;1453;42.708;23.282;2024-03-02T08:09:06;50.13;;;27.43;;
2888;SDS011;1453;42.708;23.282;2024-03-02T08:11:35;59.03;;;27.70;;
2888;SDS011;1453;42.708;23.282;2024-03-02T08:14:02;44.47;;;26.40;;
2888;SDS011;1453;42.708;23.282;2024-03-02T08:16:28;51.97;;;27.23;;
2888;SDS011;1453;42.708;23.282;2024-03-02T08:18:54;57.17;;;27.50;;
2888;SDS011;1453;42.708;23.282;2024-03-02T08:21:23;57.28;;;28.77;;
2888;SDS011;1453;42.708;23.282;2024-03-02T08:23:49;53.10;;;27.05;;
2888;SDS011;1453;42.708;23.282;2024-03-02T08:26:15;54.72;;;27.70;;
2888;SDS011;1453;42.708;23.282;2024-03-02T08:28:41;53.13;;;26.73;;
2888;SDS011;1453;42.708;23.282;2024-03-02T08:31:07;54.00;;;28.40;;
2888;SDS011;1453;42.708;23.282;2024-03-02T08:33:34;51.80;;;27.38;;
2888;SDS011;1453;42.708;23.282;2024-03-02T08:36:00;53.88;;;27.35;;
2888;SDS011;1453;42.708;23.282;2024-03-02T08:38:27;55.85;;;28.10;;
2888;SDS011;1453;42.708;23.282;2024-03-02T08:40:54;48.05;;;25.60;;
2888;SDS011;1453;42.708;23.282;2024-03-02T08:43:20;46.80;;;26.20;;
2888;SDS011;1453;42.708;23.282;2024-03-02T08:45:47;46.83;;;25.33;;
2888;SDS011;1453;42.708;23.282;2024-03-02T08:48:13;49.60;;;26.58;;
2888;SDS011;1453;42.708;23.282;2024-03-02T08:50:40;53.63;;;26.83;;
2888;SDS011;1453;42.708;23.282;2024-03-02T08:53:05;52.10;;;27.07;;
2888;SDS011;1453;42.708;23.282;2024-03-02T08:55:31;46.83;;;26.33;;
2888;SDS011;1453;42.708;23.282;2024-03-02T08:57:57;53.03;;;26.60;;
2888;SDS011;1453;42.708;23.282;2024-03-02T09:00:24;48.90;;;26.33;;
2888;SDS011;1453;42.708;23.282;2024-03-02T09:02:51;46.50;;;25.10;;
2888;SDS011;1453;42.708;23.282;2024-03-02T09:05:17;52.17;;;26.23;;
2888;SDS011;1453;42.708;23.282;2024-03-02T09:07:42;43.23;;;24.50;;
2888;SDS011;1453;42.708;23.282;2024-03-02T09:10:09;42.43;;;25.80;;
2888;SDS011;1453;42.708;23.282;2024-03-02T09:12:35;48.07;;;24.80;;
2888;SDS011;1453;42.708;23.282;2024-03-02T09:15:02;47.93;;;26.50;;
2888;SDS011;1453;42.708;23.282;2024-03-02T09:17:29;41.70;;;24.20;;
2888;SDS011;1453;42.708;23.282;2024-03-02T09:19:55;47.27;;;25.77;;
2888;SDS011;1453;42.708;23.282;2024-03-02T09:22:21;43.30;;;25.77;;
2888;SDS011;1453;42.708;23.282;2024-03-02T09:24:48;43.63;;;25.90;;
2888;SDS011;1453;42.708;23.282;2024-03-02T09:27:14;42.80;;;25.20;;
2888;SDS011;1453;42.708;23.282;2024-03-02T09:29:40;43.30;;;25.50;;
2888;SDS011;1453;42.708;23.282;2024-03-02T09:32:06;43.00;;;24.57;;
2888;SDS011;1453;42.708;23.282;2024-03-02T09:34:33;42.30;;;24.57;;
2888;SDS011;1453;42.708;23.282;2024-03-02T09:36:59;41.73;;;23.77;;
2888;SDS011;1453;42.708;23.282;2024-03-02T09:39:25;35.17;;;23.70;;
2888;SDS011;1453;42.708;23.282;2024-03-02T09:41:51;44.17;;;24.50;;
2888;SDS011;1453;42.708;23.282;2024-03-02T09:44:18;45.80;;;24.50;;
2888;SDS011;1453;42.708;23.282;2024-03-02T09:46:48;43.17;;;24.50;;
2888;SDS011;1453;42.708;23.282;2024-03-02T09:49:14;43.10;;;23.80;;
2888;SDS011;1453;42.708;23.282;2024-03-02T09:51:40;42.90;;;25.33;;
2888;SDS011;1453;42.708;23.282;2024-03-02T09:54:12;44.73;;;26.37;;
2888;SDS011;1453;42.708;23.282;2024-03-02T09:56:38;48.87;;;27.13;;
2888;SDS011;1453;42.708;23.282;2024-03-02T09:59:04;47.00;;;26.60;;
2888;SDS011;1453;42.708;23.282;2024-03-02T10:01:31;43.30;;;23.33;;
2888;SDS011;1453;42.708;23.282;2024-03-02T10:04:00;42.40;;;25.47;;
2888;SDS011;1453;42.708;23.282;2024-03-02T10:06:28;43.07;;;24.40;;
2888;SDS011;1453;42.708;23.282;2024-03-02T10:08:54;40.20;;;23.23;;
2888;SDS011;1453;42.708;23.282;2024-03-02T10:11:27;43.47;;;24.70;;
2888;SDS011;1453;42.708;23.282;2024-03-02T10:16:38;60.80;;;28.43;;
2888;SDS011;1453;42.708;23.282;2024-03-02T10:19:16;47.67;;;27.57;;
2888;SDS011;1453;42.708;23.282;2024-03-02T10:21:53;44.53;;;25.10;;
2888;SDS011;1453;42.708;23.282;2024-03-02T10:24:20;54.67;;;29.23;;
2888;SDS011;1453;42.708;23.282;2024-03-02T10:26:47;51.57;;;27.43;;
2888;SDS011;1453;42.708;23.282;2024-03-02T10:29:17;51.50;;;27.83;;
2888;SDS011;1453;42.708;23.282;2024-03-02T10:31:44;47.00;;;27.20;;
2888;SDS011;1453;42.708;23.282;2024-03-02T10:34:11;52.70;;;27.10;;
2888;SDS011;1453;42.708;23.282;2024-03-02T10:36:42;52.00;;;27.50;;
2888;SDS011;1453;42.708;23.282;2024-03-02T10:39:10;54.30;;;26.17;;
2888;SDS011;1453;42.708;23.282;2024-03-02T10:41:39;48.30;;;26.17;;
2888;SDS011;1453;42.708;23.282;2024-03-02T10:44:06;48.50;;;27.73;;
2888;SDS011;1453;42.708;23.282;2024-03-02T10:46:35;41.47;;;25.20;;
2888;SDS011;1453;42.708;23.282;2024-03-02T10:49:03;40.87;;;24.37;;
2888;SDS011;1453;42.708;23.282;2024-03-02T10:51:31;52.07;;;25.33;;
2888;SDS011;1453;42.708;23.282;2024-03-02T10:53:59;44.77;;;24.40;;
2888;SDS011;1453;42.708;23.282;2024-03-02T10:56:27;45.40;;;28.77;;
2888;SDS011;1453;42.708;23.282;2024-03-02T10:59:02;42.57;;;24.60;;
2888;SDS011;1453;42.708;23.282;2024-03-02T11:01:40;44.20;;;27.53;;
2888;SDS011;1453;42.708;23.282;2024-03-02T11:04:09;44.27;;;26.93;;
2888;SDS011;1453;42.708;23.282;2024-03-02T11:06:37;50.60;;;26.87;;
2888;SDS011;1453;42.708;23.282;2024-03-02T11:09:06;47.20;;;24.67;;
2888;SDS011;1453;42.708;23.282;2024-03-02T11:11:40;49.10;;;28.43;;
2888;SDS011;1453;42.708;23.282;2024-03-02T11:14:10;49.93;;;25.90;;
2888;SDS011;1453;42.708;23.282;2024-03-02T11:16:41;38.80;;;24.33;;
2888;SDS011;1453;42.708;23.282;2024-03-02T11:19:11;47.20;;;27.03;;
2888;SDS011;1453;42.708;23.282;2024-03-02T11:21:38;45.90;;;24.67;;
2888;SDS011;1453;42.708;23.282;2024-03-02T11:26:49;50.40;;;26.00;;
2888;SDS011;1453;42.708;23.282;2024-03-02T11:32:01;37.30;;;23.60;;
2888;SDS011;1453;42.708;23.282;2024-03-02T11:34:39;40.17;;;21.53;;
2888;SDS011;1453;42.708;23.282;2024-03-02T11:37:15;37.70;;;23.23;;
2888;SDS011;1453;42.708;23.282;2024-03-02T11:39:43;31.87;;;20.33;;
2888;SDS011;1453;42.708;23.282;2024-03-02T11:42:10;29.57;;;19.93;;
2888;SDS011;1453;42.708;23.282;2024-03-02T11:44:50;33.40;;;20.90;;
2888;SDS011;1453;42.708;23.282;2024-03-02T11:47:16;29.43;;;18.90;;
2888;SDS011;1453;42.708;23.282;2024-03-02T11:49:49;29.60;;;17.90;;
2888;SDS011;1453;42.708;23.282;2024-03-02T11:52:19;35.50;;;19.63;;
2888;SDS011;1453;42.708;23.282;2024-03-02T11:54:47;36.47;;;20.60;;
2888;SDS011;1453;42.708;23.282;2024-03-02T11:57:22;31.70;;;20.40;;
2888;SDS011;1453;42.708;23.282;2024-03-02T11:59:49;32.20;;;20.37;;
2888;SDS011;1453;42.708;23.282;2024-03-02T12:02:16;29.93;;;19.33;;
2888;SDS011;1453;42.708;23.282;2024-03-02T12:04:46;35.70;;;19.37;;
2888;SDS011;1453;42.708;23.282;2024-03-02T12:07:23;28.80;;;18.83;;
2888;SDS011;1453;42.708;23.282;2024-03-02T12:09:49;30.50;;;18.40;;
2888;SDS011;1453;42.708;23.282;2024-03-02T12:12:26;36.00;;;20.90;;
2888;SDS011;1453;42.708;23.282;2024-03-02T12:14:52;31.63;;;20.90;;
2888;SDS011;1453;42.708;23.282;2024-03-02T12:17:20;45.70;;;27.37;;
2888;SDS011;1453;42.708;23.282;2024-03-02T12:19:47;29.70;;;20.00;;
2888;SDS011;1453;42.708;23.282;2024-03-02T12:22:13;32.83;;;20.30;;
2888;SDS011;1453;42.708;23.282;2024-03-02T12:24:41;35.03;;;21.03;;
2888;SDS011;1453;42.708;23.282;2024-03-02T12:27:10;29.77;;;19.30;;
2888;SDS011;1453;42.708;23.282;2024-03-02T12:29:38;34.33;;;19.67;;
2888;SDS011;1453;42.708;23.282;2024-03-02T12:32:04;33.80;;;19.57;;
2888;SDS011;1453;42.708;23.282;2024-03-02T12:34:31;33.20;;;22.00;;
2888;SDS011;1453;42.708;23.282;2024-03-02T12:36:57;30.13;;;19.93;;
2888;SDS011;1453;42.708;23.282;2024-03-02T12:39:23;36.27;;;22.10;;
2888;SDS011;1453;42.708;23.282;2024-03-02T12:41:50;31.77;;;20.23;;
2888;SDS011;1453;42.708;23.282;2024-03-02T12:44:19;30.40;;;19.00;;
2888;SDS011;1453;42.708;23.282;2024-03-02T12:46:46;35.77;;;21.70;;
2888;SDS011;1453;42.708;23.282;2024-03-02T12:49:13;28.60;;;19.27;;
2888;SDS011;1453;42.708;23.282;2024-03-02T12:51:43;31.80;;;20.13;;
2888;SDS011;1453;42.708;23.282;2024-03-02T12:54:12;33.07;;;21.87;;
2888;SDS011;1453;42.708;23.282;2024-03-02T12:56:40;30.00;;;19.83;;
2888;SDS011;1453;42.708;23.282;2024-03-02T12:59:17;30.33;;;20.33;;
2888;SDS011;1453;42.708;23.282;2024-03-02T13:01:51;28.70;;;18.90;;
2888;SDS011;1453;42.708;23.282;2024-03-02T13:04:26;31.73;;;19.83;;
2888;SDS011;1453;42.708;23.282;2024-03-02T13:06:54;38.57;;;23.30;;
2888;SDS011;1453;42.708;23.282;2024-03-02T13:09:22;47.90;;;28.77;;
2888;SDS011;1453;42.708;23.282;2024-03-02T13:11:49;44.87;;;29.43;;
2888;SDS011;1453;42.708;23.282;2024-03-02T13:14:15;44.03;;;30.07;;
2888;SDS011;1453;42.708;23.282;2024-03-02T13:16:41;46.23;;;29.80;;
2888;SDS011;1453;42.708;23.282;2024-03-02T13:19:09;56.63;;;35.50;;
2888;SDS011;1453;42.708;23.282;2024-03-02T13:21:37;56.90;;;35.63;;
2888;SDS011;1453;42.708;23.282;2024-03-02T13:24:03;52.40;;;33.80;;
2888;SDS011;1453;42.708;23.282;2024-03-02T13:26:30;58.67;;;35.53;;
2888;SDS011;1453;42.708;23.282;2024-03-02T13:28:57;54.67;;;33.60;;
2888;SDS011;1453;42.708;23.282;2024-03-02T13:31:22;48.20;;;28.80;;
2888;SDS011;1453;42.708;23.282;2024-03-02T13:33:48;47.10;;;29.03;;
2888;SDS011;1453;42.708;23.282;2024-03-02T13:36:14;40.50;;;24.90;;
2888;SDS011;1453;42.708;23.282;2024-03-02T13:38:40;35.83;;;24.00;;
2888;SDS011;1453;42.708;23.282;2024-03-02T13:41:07;38.07;;;22.70;;
2888;SDS011;1453;42.708;23.282;2024-03-02T13:43:32;43.43;;;25.33;;
2888;SDS011;1453;42.708;23.282;2024-03-02T13:46:00;46.20;;;30.30;;
2888;SDS011;1453;42.708;23.282;2024-03-02T13:48:29;51.87;;;33.90;;
2888;SDS011;1453;42.708;23.282;2024-03-02T13:50:56;47.57;;;31.57;;
2888;SDS011;1453;42.708;23.282;2024-03-02T13:53:25;45.40;;;29.03;;
2888;SDS011;1453;42.708;23.282;2024-03-02T13:55:51;42.33;;;26.70;;
2888;SDS011;1453;42.708;23.282;2024-03-02T13:58:20;48.60;;;29.90;;
2888;SDS011;1453;42.708;23.282;2024-03-02T14:00:46;42.83;;;29.10;;
2888;SDS011;1453;42.708;23.282;2024-03-02T14:03:12;45.83;;;28.30;;
2888;SDS011;1453;42.708;23.282;2024-03-02T14:05:38;44.03;;;29.53;;
2888;SDS011;1453;42.708;23.282;2024-03-02T14:08:04;48.27;;;29.60;;
2888;SDS011;1453;42.708;23.282;2024-03-02T14:10:30;42.60;;;28.57;;
2888;SDS011;1453;42.708;23.282;2024-03-02T14:12:56;47.80;;;29.23;;
2888;SDS011;1453;42.708;23.282;2024-03-02T14:15:22;48.70;;;30.17;;
2888;SDS011;1453;42.708;23.282;2024-03-02T14:17:49;44.40;;;27.40;;
2888;SDS011;1453;42.708;23.282;2024-03-02T14:20:15;50.87;;;30.57;;
2888;SDS011;1453;42.708;23.282;2024-03-02T14:22:46;49.27;;;30.27;;
2888;SDS011;1453;42.708;23.282;2024-03-02T14:25:13;47.67;;;29.13;;
2888;SDS011;1453;42.708;23.282;2024-03-02T14:27:39;49.37;;;29.27;;
2888;SDS011;1453;42.708;23.282;2024-03-02T14:30:05;46.93;;;26.53;;
2888;SDS011;1453;42.708;23.282;2024-03-02T14:32:32;54.50;;;29.20;;
2888;SDS011;1453;42.708;23.282;2024-03-02T14:34:58;46.17;;;28.73;;
2888;SDS011;1453;42.708;23.282;2024-03-02T14:37:24;42.97;;;26.87;;
2888;SDS011;1453;42.708;23.282;2024-03-02T14:39:50;36.13;;;21.70;;
2888;SDS011;1453;42.708;23.282;2024-03-02T14:42:16;36.90;;;21.80;;
2888;SDS011;1453;42.708;23.282;2024-03-02T14:44:41;32.93;;;22.53;;
2888;SDS011;1453;42.708;23.282;2024-03-02T14:47:08;37.97;;;22.77;;
2888;SDS011;1453;42.708;23.282;2024-03-02T14:49:34;33.30;;;22.00;;
2888;SDS011;1453;42.708;23.282;2024-03-02T14:52:02;43.07;;;28.60;;